sensor_id;sensor_type;location;lat;lon;timestamp;P1;durP1;ratioP1;P2;durP2;ratioP2
37753;SDS011;23596;52.520;13.464;2022-08-19T00:00:18;16.50;;;12.70;;
37753;SDS011;23596;52.520;13.464;2022-08-19T00:02:44;18.67;;;14.10;;
37753;SDS011;23596;52.520;13.464;2022-08-19T00:05:11;24.60;;;14.23;;
37753;SDS011;23596;52.520;13.464;2022-08-19T00:07:37;16.85;;;12.98;;
37753;SDS011;23596;52.520;13.464;2022-08-19T00:10:07;26.40;;;14.40;;
37753;SDS011;23596;52.520;13.464;2022-08-19T00:12:33;21.15;;;13.30;;
37753;SDS011;23596;52.520;13.464;2022-08-19T00:14:59;20.23;;;14.17;;
37753;SDS011;23596;52.520;13.464;2022-08-19T00:17:24;21.70;;;15.27;;
37753;SDS011;23596;52.520;13.464;2022-08-19T00:19:50;19.93;;;15.97;;
37753;SDS011;23596;52.520;13.464;2022-08-19T00:22:16;20.00;;;16.03;;
37753;SDS011;23596;52.520;13.464;2022-08-19T00:24:43;23.55;;;16.60;;
37753;SDS011;23596;52.520;13.464;2022-08-19T00:27:10;20.80;;;16.02;;
37753;SDS011;23596;52.520;13.464;2022-08-19T00:29:36;26.38;;;17.13;;
37753;SDS011;23596;52.520;13.464;2022-08-19T00:32:02;23.10;;;17.80;;
37753;SDS011;23596;52.520;13.464;2022-08-19T00:34:29;25.20;;;18.65;;
37753;SDS011;23596;52.520;13.464;2022-08-19T00:36:55;26.10;;;18.07;;
37753;SDS011;23596;52.520;13.464;2022-08-19T00:39:21;23.10;;;17.27;;
37753;SDS011;23596;52.520;13.464;2022-08-19T00:41:48;23.77;;;17.63;;
37753;SDS011;23596;52.520;13.464;2022-08-19T00:44:16;24.10;;;18.40;;
37753;SDS011;23596;52.520;13.464;2022-08-19T00:46:45;30.05;;;18.90;;
37753;SDS011;23596;52.520;13.464;2022-08-19T00:51:46;28.60;;;18.20;;
37753;SDS011;23596;52.520;13.464;2022-08-19T00:54:15;27.45;;;19.85;;
37753;SDS011;23596;52.520;13.464;2022-08-19T00:56:42;25.70;;;18.30;;
37753;SDS011;23596;52.520;13.464;2022-08-19T00:59:08;25.85;;;19.42;;
37753;SDS011;23596;52.520;13.464;2022-08-19T01:01:35;27.47;;;19.40;;
37753;SDS011;23596;52.520;13.464;2022-08-19T01:04:05;26.10;;;18.02;;
37753;SDS011;23596;52.520;13.464;2022-08-19T01:06:32;33.17;;;19.60;;
37753;SDS011;23596;52.520;13.464;2022-08-19T01:08:59;32.47;;;20.33;;
37753;SDS011;23596;52.520;13.464;2022-08-19T01:11:26;28.08;;;20.20;;
37753;SDS011;23596;52.520;13.464;2022-08-19T01:13:53;26.35;;;19.58;;
37753;SDS011;23596;52.520;13.464;2022-08-19T01:16:20;35.17;;;21.23;;
37753;SDS011;23596;52.520;13.464;2022-08-19T01:18:49;34.97;;;21.45;;
37753;SDS011;23596;52.520;13.464;2022-08-19T01:21:20;31.05;;;21.48;;
37753;SDS011;23596;52.520;13.464;2022-08-19T01:23:47;33.03;;;21.75;;
37753;SDS011;23596;52.520;13.464;2022-08-19T01:26:20;32.50;;;20.37;;
37753;SDS011;23596;52.520;13.464;2022-08-19T01:28:48;30.92;;;21.63;;
37753;SDS011;23596;52.520;13.464;2022-08-19T01:31:17;30.40;;;21.30;;
37753;SDS011;23596;52.520;13.464;2022-08-19T01:33:46;38.78;;;24.63;;
37753;SDS011;23596;52.520;13.464;2022-08-19T01:36:14;38.63;;;23.90;;
37753;SDS011;23596;52.520;13.464;2022-08-19T01:38:47;41.72;;;24.20;;
37753;SDS011;23596;52.520;13.464;2022-08-19T01:41:14;44.40;;;24.42;;
37753;SDS011;23596;52.520;13.464;2022-08-19T01:43:40;34.90;;;23.63;;
37753;SDS011;23596;52.520;13.464;2022-08-19T01:46:05;37.33;;;23.10;;
37753;SDS011;23596;52.520;13.464;2022-08-19T01:48:36;36.33;;;22.70;;
37753;SDS011;23596;52.520;13.464;2022-08-19T01:51:03;41.00;;;21.15;;
37753;SDS011;23596;52.520;13.464;2022-08-19T01:53:29;32.00;;;22.70;;
37753;SDS011;23596;52.520;13.464;2022-08-19T01:55:55;30.77;;;22.93;;
37753;SDS011;23596;52.520;13.464;2022-08-19T01:58:22;41.63;;;23.15;;
37753;SDS011;23596;52.520;13.464;2022-08-19T02:00:51;30.65;;;20.42;;
37753;SDS011;23596;52.520;13.464;2022-08-19T02:03:17;34.30;;;22.33;;
37753;SDS011;23596;52.520;13.464;2022-08-19T02:05:43;40.67;;;20.98;;
37753;SDS011;23596;52.520;13.464;2022-08-19T02:08:09;34.67;;;20.15;;
37753;SDS011;23596;52.520;13.464;2022-08-19T02:10:38;36.90;;;22.85;;
37753;SDS011;23596;52.520;13.464;2022-08-19T02:13:05;36.85;;;22.90;;
37753;SDS011;23596;52.520;13.464;2022-08-19T02:15:31;39.63;;;24.93;;
37753;SDS011;23596;52.520;13.464;2022-08-19T02:17:57;40.00;;;24.73;;
37753;SDS011;23596;52.520;13.464;2022-08-19T02:20:23;39.27;;;24.80;;
37753;SDS011;23596;52.520;13.464;2022-08-19T02:22:48;38.27;;;25.30;;
37753;SDS011;23596;52.520;13.464;2022-08-19T02:25:14;46.23;;;26.57;;
37753;SDS011;23596;52.520;13.464;2022-08-19T02:27:40;38.73;;;26.30;;
37753;SDS011;23596;52.520;13.464;2022-08-19T02:30:08;40.55;;;25.95;;
37753;SDS011;23596;52.520;13.464;2022-08-19T02:32:36;40.92;;;25.27;;
37753;SDS011;23596;52.520;13.464;2022-08-19T02:35:02;42.87;;;26.60;;
37753;SDS011;23596;52.520;13.464;2022-08-19T02:37:28;37.50;;;26.92;;
37753;SDS011;23596;52.520;13.464;2022-08-19T02:40:12;45.75;;;27.17;;
37753;SDS011;23596;52.520;13.464;2022-08-19T02:42:38;40.03;;;26.97;;
37753;SDS011;23596;52.520;13.464;2022-08-19T02:45:05;41.20;;;27.83;;
37753;SDS011;23596;52.520;13.464;2022-08-19T02:47:32;43.47;;;27.70;;
37753;SDS011;23596;52.520;13.464;2022-08-19T02:49:59;41.38;;;26.23;;
37753;SDS011;23596;52.520;13.464;2022-08-19T02:52:25;38.50;;;26.70;;
37753;SDS011;23596;52.520;13.464;2022-08-19T02:54:52;47.25;;;27.98;;
37753;SDS011;23596;52.520;13.464;2022-08-19T02:57:17;45.28;;;27.42;;
37753;SDS011;23596;52.520;13.464;2022-08-19T02:59:43;41.87;;;27.80;;
37753;SDS011;23596;52.520;13.464;2022-08-19T03:02:08;42.50;;;27.17;;
37753;SDS011;23596;52.520;13.464;2022-08-19T03:04:34;39.67;;;25.50;;
37753;SDS011;23596;52.520;13.464;2022-08-19T03:06:59;44.97;;;27.43;;
37753;SDS011;23596;52.520;13.464;2022-08-19T03:09:25;39.13;;;26.40;;
37753;SDS011;23596;52.520;13.464;2022-08-19T03:11:51;40.07;;;25.50;;
37753;SDS011;23596;52.520;13.464;2022-08-19T03:14:16;40.30;;;25.03;;
37753;SDS011;23596;52.520;13.464;2022-08-19T03:16:44;35.97;;;24.73;;
37753;SDS011;23596;52.520;13.464;2022-08-19T03:19:11;37.03;;;24.13;;
37753;SDS011;23596;52.520;13.464;2022-08-19T03:21:37;35.97;;;24.17;;
37753;SDS011;23596;52.520;13.464;2022-08-19T03:24:04;38.30;;;24.13;;
37753;SDS011;23596;52.520;13.464;2022-08-19T03:26:32;55.33;;;25.10;;
37753;SDS011;23596;52.520;13.464;2022-08-19T03:29:01;38.47;;;25.00;;
37753;SDS011;23596;52.520;13.464;2022-08-19T03:31:28;44.13;;;25.58;;
37753;SDS011;23596;52.520;13.464;2022-08-19T03:33:54;33.97;;;24.43;;
37753;SDS011;23596;52.520;13.464;2022-08-19T03:36:21;35.07;;;23.73;;
37753;SDS011;23596;52.520;13.464;2022-08-19T03:38:49;37.03;;;23.80;;
37753;SDS011;23596;52.520;13.464;2022-08-19T03:41:20;35.92;;;22.15;;
37753;SDS011;23596;52.520;13.464;2022-08-19T03:43:48;31.75;;;21.92;;
37753;SDS011;23596;52.520;13.464;2022-08-19T03:46:17;42.58;;;22.77;;
37753;SDS011;23596;52.520;13.464;2022-08-19T03:48:48;31.65;;;23.15;;
37753;SDS011;23596;52.520;13.464;2022-08-19T03:51:20;33.95;;;23.35;;
37753;SDS011;23596;52.520;13.464;2022-08-19T03:53:46;37.60;;;23.10;;
37753;SDS011;23596;52.520;13.464;2022-08-19T03:56:12;34.08;;;24.33;;
37753;SDS011;23596;52.520;13.464;2022-08-19T03:58:39;34.60;;;23.98;;
37753;SDS011;23596;52.520;13.464;2022-08-19T04:01:09;32.10;;;23.33;;
37753;SDS011;23596;52.520;13.464;2022-08-19T04:03:38;33.63;;;23.90;;
37753;SDS011;23596;52.520;13.464;2022-08-19T04:08:44;32.78;;;24.27;;
37753;SDS011;23596;52.520;13.464;2022-08-19T04:11:11;37.45;;;22.38;;
37753;SDS011;23596;52.520;13.464;2022-08-19T04:13:39;35.95;;;24.48;;
37753;SDS011;23596;52.520;13.464;2022-08-19T04:16:05;33.63;;;24.43;;
37753;SDS011;23596;52.520;13.464;2022-08-19T04:18:32;36.38;;;24.45;;
37753;SDS011;23596;52.520;13.464;2022-08-19T04:20:58;38.00;;;25.60;;
37753;SDS011;23596;52.520;13.464;2022-08-19T04:23:25;39.70;;;25.08;;
37753;SDS011;23596;52.520;13.464;2022-08-19T04:25:53;42.03;;;26.20;;
37753;SDS011;23596;52.520;13.464;2022-08-19T04:28:19;38.72;;;26.58;;
37753;SDS011;23596;52.520;13.464;2022-08-19T04:30:48;36.60;;;26.03;;
37753;SDS011;23596;52.520;13.464;2022-08-19T04:33:16;39.33;;;26.23;;
37753;SDS011;23596;52.520;13.464;2022-08-19T04:35:46;37.78;;;25.77;;
37753;SDS011;23596;52.520;13.464;2022-08-19T04:38:13;38.58;;;25.27;;
37753;SDS011;23596;52.520;13.464;2022-08-19T04:40:43;37.20;;;25.52;;
37753;SDS011;23596;52.520;13.464;2022-08-19T04:43:29;34.38;;;24.88;;
37753;SDS011;23596;52.520;13.464;2022-08-19T04:45:55;37.67;;;26.48;;
37753;SDS011;23596;52.520;13.464;2022-08-19T04:48:21;38.93;;;24.70;;
37753;SDS011;23596;52.520;13.464;2022-08-19T04:50:54;42.97;;;26.15;;
37753;SDS011;23596;52.520;13.464;2022-08-19T04:53:32;40.72;;;26.45;;
37753;SDS011;23596;52.520;13.464;2022-08-19T04:55:59;37.50;;;25.27;;
37753;SDS011;23596;52.520;13.464;2022-08-19T04:58:28;39.00;;;25.00;;
37753;SDS011;23596;52.520;13.464;2022-08-19T05:00:54;34.23;;;24.73;;
37753;SDS011;23596;52.520;13.464;2022-08-19T05:03:20;31.97;;;23.73;;
37753;SDS011;23596;52.520;13.464;2022-08-19T05:05:46;33.80;;;24.70;;
37753;SDS011;23596;52.520;13.464;2022-08-19T05:08:14;36.08;;;24.10;;
37753;SDS011;23596;52.520;13.464;2022-08-19T05:10:44;33.70;;;24.33;;
37753;SDS011;23596;52.520;13.464;2022-08-19T05:13:13;34.05;;;24.98;;
37753;SDS011;23596;52.520;13.464;2022-08-19T05:15:39;34.30;;;24.33;;
37753;SDS011;23596;52.520;13.464;2022-08-19T05:18:05;38.00;;;24.20;;
37753;SDS011;23596;52.520;13.464;2022-08-19T05:20:49;38.78;;;23.38;;
37753;SDS011;23596;52.520;13.464;2022-08-19T05:23:33;34.05;;;23.20;;
37753;SDS011;23596;52.520;13.464;2022-08-19T05:25:59;30.40;;;21.97;;
37753;SDS011;23596;52.520;13.464;2022-08-19T05:28:25;29.02;;;21.30;;
37753;SDS011;23596;52.520;13.464;2022-08-19T05:30:50;28.40;;;20.17;;
37753;SDS011;23596;52.520;13.464;2022-08-19T05:33:16;26.60;;;19.50;;
37753;SDS011;23596;52.520;13.464;2022-08-19T05:38:09;32.42;;;20.02;;
37753;SDS011;23596;52.520;13.464;2022-08-19T05:40:36;24.83;;;17.25;;
37753;SDS011;23596;52.520;13.464;2022-08-19T05:43:04;31.30;;;19.25;;
37753;SDS011;23596;52.520;13.464;2022-08-19T05:45:31;26.98;;;17.92;;
37753;SDS011;23596;52.520;13.464;2022-08-19T05:47:57;24.97;;;18.17;;
37753;SDS011;23596;52.520;13.464;2022-08-19T05:50:23;24.60;;;18.90;;
37753;SDS011;23596;52.520;13.464;2022-08-19T05:52:51;26.92;;;17.80;;
37753;SDS011;23596;52.520;13.464;2022-08-19T05:55:17;28.42;;;16.88;;
37753;SDS011;23596;52.520;13.464;2022-08-19T05:57:45;31.52;;;17.63;;
37753;SDS011;23596;52.520;13.464;2022-08-19T06:00:11;23.57;;;17.30;;
37753;SDS011;23596;52.520;13.464;2022-08-19T06:02:37;28.77;;;16.83;;
37753;SDS011;23596;52.520;13.464;2022-08-19T06:05:05;23.55;;;17.27;;
37753;SDS011;23596;52.520;13.464;2022-08-19T06:07:34;20.65;;;16.42;;
37753;SDS011;23596;52.520;13.464;2022-08-19T06:10:01;23.42;;;17.73;;
37753;SDS011;23596;52.520;13.464;2022-08-19T06:12:28;34.08;;;19.42;;
37753;SDS011;23596;52.520;13.464;2022-08-19T06:14:56;30.70;;;18.75;;
37753;SDS011;23596;52.520;13.464;2022-08-19T06:17:22;26.30;;;18.60;;
37753;SDS011;23596;52.520;13.464;2022-08-19T06:19:50;30.15;;;19.15;;
37753;SDS011;23596;52.520;13.464;2022-08-19T06:22:16;37.47;;;19.43;;
37753;SDS011;23596;52.520;13.464;2022-08-19T06:24:41;27.67;;;18.33;;
37753;SDS011;23596;52.520;13.464;2022-08-19T06:27:07;30.30;;;17.73;;
37753;SDS011;23596;52.520;13.464;2022-08-19T06:29:33;23.97;;;17.80;;
37753;SDS011;23596;52.520;13.464;2022-08-19T06:32:00;27.10;;;18.88;;
37753;SDS011;23596;52.520;13.464;2022-08-19T06:34:28;25.85;;;17.88;;
37753;SDS011;23596;52.520;13.464;2022-08-19T06:36:56;25.40;;;17.88;;
37753;SDS011;23596;52.520;13.464;2022-08-19T06:39:26;31.55;;;18.83;;
37753;SDS011;23596;52.520;13.464;2022-08-19T06:41:55;30.40;;;18.45;;
37753;SDS011;23596;52.520;13.464;2022-08-19T06:44:22;29.67;;;17.20;;
37753;SDS011;23596;52.520;13.464;2022-08-19T06:46:54;24.33;;;18.48;;
37753;SDS011;23596;52.520;13.464;2022-08-19T06:49:20;29.63;;;18.17;;
37753;SDS011;23596;52.520;13.464;2022-08-19T06:51:47;27.08;;;17.98;;
37753;SDS011;23596;52.520;13.464;2022-08-19T06:54:14;25.95;;;18.58;;
37753;SDS011;23596;52.520;13.464;2022-08-19T06:56:40;35.80;;;19.52;;
37753;SDS011;23596;52.520;13.464;2022-08-19T06:59:08;25.87;;;18.60;;
37753;SDS011;23596;52.520;13.464;2022-08-19T07:01:40;28.42;;;18.55;;
37753;SDS011;23596;52.520;13.464;2022-08-19T07:04:08;31.33;;;19.15;;
37753;SDS011;23596;52.520;13.464;2022-08-19T07:06:34;26.70;;;18.67;;
37753;SDS011;23596;52.520;13.464;2022-08-19T07:09:02;27.95;;;18.73;;
37753;SDS011;23596;52.520;13.464;2022-08-19T07:11:30;30.60;;;19.00;;
37753;SDS011;23596;52.520;13.464;2022-08-19T07:13:55;27.27;;;17.57;;
37753;SDS011;23596;52.520;13.464;2022-08-19T07:16:21;28.87;;;18.77;;
37753;SDS011;23596;52.520;13.464;2022-08-19T07:18:47;30.20;;;21.50;;
37753;SDS011;23596;52.520;13.464;2022-08-19T07:21:24;26.92;;;19.92;;
37753;SDS011;23596;52.520;13.464;2022-08-19T07:23:53;31.13;;;20.35;;
37753;SDS011;23596;52.520;13.464;2022-08-19T07:26:20;26.00;;;18.77;;
37753;SDS011;23596;52.520;13.464;2022-08-19T07:28:51;25.25;;;18.75;;
37753;SDS011;23596;52.520;13.464;2022-08-19T07:31:18;27.48;;;19.42;;
37753;SDS011;23596;52.520;13.464;2022-08-19T07:33:46;34.88;;;19.25;;
37753;SDS011;23596;52.520;13.464;2022-08-19T07:36:13;28.27;;;20.10;;
37753;SDS011;23596;52.520;13.464;2022-08-19T07:38:42;25.67;;;17.95;;
37753;SDS011;23596;52.520;13.464;2022-08-19T07:41:10;33.00;;;21.40;;
37753;SDS011;23596;52.520;13.464;2022-08-19T07:43:38;26.20;;;19.60;;
37753;SDS011;23596;52.520;13.464;2022-08-19T07:46:04;32.13;;;21.65;;
37753;SDS011;23596;52.520;13.464;2022-08-19T07:48:30;32.40;;;21.58;;
37753;SDS011;23596;52.520;13.464;2022-08-19T07:50:57;31.57;;;21.40;;
37753;SDS011;23596;52.520;13.464;2022-08-19T07:53:28;32.20;;;20.80;;
37753;SDS011;23596;52.520;13.464;2022-08-19T07:55:55;30.65;;;21.40;;
37753;SDS011;23596;52.520;13.464;2022-08-19T07:58:28;32.42;;;20.70;;
37753;SDS011;23596;52.520;13.464;2022-08-19T08:00:54;41.05;;;21.17;;
37753;SDS011;23596;52.520;13.464;2022-08-19T08:03:20;34.60;;;22.30;;
37753;SDS011;23596;52.520;13.464;2022-08-19T08:06:06;35.67;;;19.77;;
37753;SDS011;23596;52.520;13.464;2022-08-19T08:08:51;30.02;;;20.73;;
37753;SDS011;23596;52.520;13.464;2022-08-19T08:11:35;33.20;;;22.67;;
37753;SDS011;23596;52.520;13.464;2022-08-19T08:14:01;31.83;;;21.97;;
37753;SDS011;23596;52.520;13.464;2022-08-19T08:16:27;30.87;;;21.97;;
37753;SDS011;23596;52.520;13.464;2022-08-19T08:18:57;26.45;;;22.48;;
37753;SDS011;23596;52.520;13.464;2022-08-19T08:21:23;37.20;;;22.13;;
37753;SDS011;23596;52.520;13.464;2022-08-19T08:23:48;32.80;;;22.63;;
37753;SDS011;23596;52.520;13.464;2022-08-19T08:26:14;28.80;;;21.57;;
37753;SDS011;23596;52.520;13.464;2022-08-19T08:28:40;33.78;;;23.05;;
37753;SDS011;23596;52.520;13.464;2022-08-19T08:31:06;36.03;;;22.63;;
37753;SDS011;23596;52.520;13.464;2022-08-19T08:33:31;33.60;;;22.97;;
37753;SDS011;23596;52.520;13.464;2022-08-19T08:35:57;36.33;;;23.00;;
37753;SDS011;23596;52.520;13.464;2022-08-19T08:38:22;38.53;;;24.07;;
37753;SDS011;23596;52.520;13.464;2022-08-19T08:40:49;42.00;;;23.57;;
37753;SDS011;23596;52.520;13.464;2022-08-19T08:43:37;31.75;;;22.88;;
37753;SDS011;23596;52.520;13.464;2022-08-19T08:46:09;35.45;;;22.13;;
37753;SDS011;23596;52.520;13.464;2022-08-19T08:48:56;26.92;;;22.27;;
37753;SDS011;23596;52.520;13.464;2022-08-19T08:51:32;29.17;;;21.30;;
37753;SDS011;23596;52.520;13.464;2022-08-19T08:54:04;28.90;;;21.40;;
37753;SDS011;23596;52.520;13.464;2022-08-19T08:56:32;28.48;;;21.23;;
37753;SDS011;23596;52.520;13.464;2022-08-19T09:01:46;27.17;;;21.17;;
37753;SDS011;23596;52.520;13.464;2022-08-19T09:04:13;30.95;;;22.05;;
37753;SDS011;23596;52.520;13.464;2022-08-19T09:09:40;28.95;;;22.58;;
37753;SDS011;23596;52.520;13.464;2022-08-19T09:12:10;28.42;;;22.77;;
37753;SDS011;23596;52.520;13.464;2022-08-19T09:15:03;38.03;;;23.75;;
37753;SDS011;23596;52.520;13.464;2022-08-19T09:17:32;29.67;;;23.95;;
37753;SDS011;23596;52.520;13.464;2022-08-19T09:22:31;35.58;;;24.42;;
37753;SDS011;23596;52.520;13.464;2022-08-19T09:24:56;40.57;;;23.80;;
37753;SDS011;23596;52.520;13.464;2022-08-19T09:27:22;29.13;;;23.23;;
37753;SDS011;23596;52.520;13.464;2022-08-19T09:29:50;34.00;;;23.17;;
37753;SDS011;23596;52.520;13.464;2022-08-19T09:32:16;33.65;;;23.95;;
37753;SDS011;23596;52.520;13.464;2022-08-19T09:34:43;27.90;;;21.95;;
37753;SDS011;23596;52.520;13.464;2022-08-19T09:37:09;36.53;;;24.37;;
37753;SDS011;23596;52.520;13.464;2022-08-19T09:39:34;32.97;;;22.80;;
37753;SDS011;23596;52.520;13.464;2022-08-19T09:42:00;28.50;;;21.90;;
37753;SDS011;23596;52.520;13.464;2022-08-19T09:44:28;30.77;;;22.30;;
37753;SDS011;23596;52.520;13.464;2022-08-19T09:46:54;33.33;;;21.10;;
37753;SDS011;23596;52.520;13.464;2022-08-19T09:51:50;25.20;;;19.90;;
37753;SDS011;23596;52.520;13.464;2022-08-19T09:54:18;32.45;;;20.92;;
37753;SDS011;23596;52.520;13.464;2022-08-19T09:56:44;24.83;;;20.10;;
37753;SDS011;23596;52.520;13.464;2022-08-19T09:59:09;32.63;;;21.07;;
37753;SDS011;23596;52.520;13.464;2022-08-19T10:01:36;33.58;;;20.98;;
37753;SDS011;23596;52.520;13.464;2022-08-19T10:04:03;33.85;;;20.73;;
37753;SDS011;23596;52.520;13.464;2022-08-19T10:06:36;26.52;;;19.05;;
37753;SDS011;23596;52.520;13.464;2022-08-19T10:09:03;26.73;;;20.33;;
37753;SDS011;23596;52.520;13.464;2022-08-19T10:11:31;27.80;;;18.27;;
37753;SDS011;23596;52.520;13.464;2022-08-19T10:13:57;32.03;;;20.00;;
37753;SDS011;23596;52.520;13.464;2022-08-19T10:18:50;27.20;;;19.35;;
37753;SDS011;23596;52.520;13.464;2022-08-19T10:21:21;31.55;;;21.20;;
37753;SDS011;23596;52.520;13.464;2022-08-19T10:23:49;32.55;;;20.13;;
37753;SDS011;23596;52.520;13.464;2022-08-19T10:26:18;30.60;;;20.88;;
37753;SDS011;23596;52.520;13.464;2022-08-19T10:28:46;28.00;;;20.45;;
37753;SDS011;23596;52.520;13.464;2022-08-19T10:31:16;26.93;;;19.40;;
37753;SDS011;23596;52.520;13.464;2022-08-19T10:33:45;27.90;;;19.15;;
37753;SDS011;23596;52.520;13.464;2022-08-19T10:36:14;31.10;;;20.52;;
37753;SDS011;23596;52.520;13.464;2022-08-19T10:38:42;25.95;;;19.10;;
37753;SDS011;23596;52.520;13.464;2022-08-19T10:41:17;29.73;;;19.67;;
37753;SDS011;23596;52.520;13.464;2022-08-19T10:43:47;25.00;;;18.52;;
37753;SDS011;23596;52.520;13.464;2022-08-19T10:46:15;32.08;;;19.77;;
37753;SDS011;23596;52.520;13.464;2022-08-19T10:48:41;33.80;;;18.30;;
37753;SDS011;23596;52.520;13.464;2022-08-19T10:51:09;27.55;;;18.48;;
37753;SDS011;23596;52.520;13.464;2022-08-19T10:53:55;28.00;;;18.38;;
37753;SDS011;23596;52.520;13.464;2022-08-19T10:56:21;31.17;;;18.70;;
37753;SDS011;23596;52.520;13.464;2022-08-19T10:59:06;26.30;;;18.95;;
37753;SDS011;23596;52.520;13.464;2022-08-19T11:01:32;22.27;;;16.70;;
37753;SDS011;23596;52.520;13.464;2022-08-19T11:03:59;24.98;;;18.45;;
37753;SDS011;23596;52.520;13.464;2022-08-19T11:08:53;29.27;;;20.10;;
37753;SDS011;23596;52.520;13.464;2022-08-19T11:11:19;27.27;;;18.10;;
37753;SDS011;23596;52.520;13.464;2022-08-19T11:16:13;27.60;;;17.40;;
37753;SDS011;23596;52.520;13.464;2022-08-19T11:18:45;31.10;;;18.77;;
37753;SDS011;23596;52.520;13.464;2022-08-19T11:21:15;26.55;;;18.10;;
37753;SDS011;23596;52.520;13.464;2022-08-19T11:23:44;26.80;;;18.40;;
37753;SDS011;23596;52.520;13.464;2022-08-19T11:28:36;22.45;;;16.35;;
37753;SDS011;23596;52.520;13.464;2022-08-19T11:31:02;27.20;;;18.87;;
37753;SDS011;23596;52.520;13.464;2022-08-19T11:33:28;28.67;;;17.58;;
37753;SDS011;23596;52.520;13.464;2022-08-19T11:35:57;31.83;;;18.38;;
37753;SDS011;23596;52.520;13.464;2022-08-19T11:38:24;29.77;;;17.65;;
37753;SDS011;23596;52.520;13.464;2022-08-19T11:40:57;26.27;;;18.50;;
37753;SDS011;23596;52.520;13.464;2022-08-19T11:43:25;27.73;;;18.83;;
37753;SDS011;23596;52.520;13.464;2022-08-19T11:45:52;25.25;;;17.80;;
37753;SDS011;23596;52.520;13.464;2022-08-19T11:48:18;27.35;;;17.63;;
37753;SDS011;23596;52.520;13.464;2022-08-19T11:50:47;30.85;;;19.20;;
37753;SDS011;23596;52.520;13.464;2022-08-19T11:53:13;26.45;;;17.20;;
37753;SDS011;23596;52.520;13.464;2022-08-19T11:55:40;25.23;;;17.20;;
37753;SDS011;23596;52.520;13.464;2022-08-19T11:58:07;23.23;;;17.25;;
37753;SDS011;23596;52.520;13.464;2022-08-19T12:00:33;22.50;;;16.40;;
37753;SDS011;23596;52.520;13.464;2022-08-19T12:03:01;20.65;;;15.45;;
37753;SDS011;23596;52.520;13.464;2022-08-19T12:05:27;21.37;;;15.87;;
37753;SDS011;23596;52.520;13.464;2022-08-19T12:07:52;23.97;;;16.67;;
37753;SDS011;23596;52.520;13.464;2022-08-19T12:10:19;20.10;;;15.50;;
37753;SDS011;23596;52.520;13.464;2022-08-19T12:12:45;26.77;;;15.23;;
37753;SDS011;23596;52.520;13.464;2022-08-19T12:15:11;24.23;;;15.03;;
37753;SDS011;23596;52.520;13.464;2022-08-19T12:17:39;21.73;;;13.80;;
37753;SDS011;23596;52.520;13.464;2022-08-19T12:20:07;22.35;;;14.88;;
37753;SDS011;23596;52.520;13.464;2022-08-19T12:22:38;17.90;;;13.95;;
37753;SDS011;23596;52.520;13.464;2022-08-19T12:25:06;18.13;;;13.90;;
37753;SDS011;23596;52.520;13.464;2022-08-19T12:27:33;19.80;;;13.85;;
37753;SDS011;23596;52.520;13.464;2022-08-19T12:30:00;19.40;;;13.60;;
37753;SDS011;23596;52.520;13.464;2022-08-19T12:32:30;20.48;;;13.35;;
37753;SDS011;23596;52.520;13.464;2022-08-19T12:34:56;18.43;;;12.27;;
37753;SDS011;23596;52.520;13.464;2022-08-19T12:37:22;20.63;;;12.35;;
37753;SDS011;23596;52.520;13.464;2022-08-19T12:39:47;14.60;;;11.60;;
37753;SDS011;23596;52.520;13.464;2022-08-19T12:42:13;17.47;;;11.60;;
37753;SDS011;23596;52.520;13.464;2022-08-19T12:44:40;14.98;;;11.82;;
37753;SDS011;23596;52.520;13.464;2022-08-19T12:47:07;15.90;;;11.52;;
37753;SDS011;23596;52.520;13.464;2022-08-19T12:49:35;21.67;;;11.95;;
37753;SDS011;23596;52.520;13.464;2022-08-19T12:52:07;15.80;;;11.10;;
37753;SDS011;23596;52.520;13.464;2022-08-19T12:54:35;16.13;;;12.13;;
37753;SDS011;23596;52.520;13.464;2022-08-19T12:57:06;18.98;;;10.65;;
37753;SDS011;23596;52.520;13.464;2022-08-19T12:59:33;21.00;;;11.25;;
37753;SDS011;23596;52.520;13.464;2022-08-19T13:02:05;17.75;;;12.07;;
37753;SDS011;23596;52.520;13.464;2022-08-19T13:04:32;20.75;;;11.40;;
37753;SDS011;23596;52.520;13.464;2022-08-19T13:07:05;15.73;;;11.27;;
37753;SDS011;23596;52.520;13.464;2022-08-19T13:09:32;15.85;;;11.30;;
37753;SDS011;23596;52.520;13.464;2022-08-19T13:11:57;14.70;;;11.70;;
37753;SDS011;23596;52.520;13.464;2022-08-19T13:14:26;17.95;;;11.90;;
37753;SDS011;23596;52.520;13.464;2022-08-19T13:16:51;14.87;;;12.07;;
37753;SDS011;23596;52.520;13.464;2022-08-19T13:19:17;14.87;;;11.63;;
37753;SDS011;23596;52.520;13.464;2022-08-19T13:21:45;20.05;;;12.90;;
37753;SDS011;23596;52.520;13.464;2022-08-19T13:24:15;18.90;;;12.18;;
37753;SDS011;23596;52.520;13.464;2022-08-19T13:26:40;17.40;;;13.17;;
37753;SDS011;23596;52.520;13.464;2022-08-19T13:29:06;15.07;;;11.47;;
37753;SDS011;23596;52.520;13.464;2022-08-19T13:31:50;19.23;;;13.60;;
37753;SDS011;23596;52.520;13.464;2022-08-19T13:34:34;19.65;;;13.50;;
37753;SDS011;23596;52.520;13.464;2022-08-19T13:37:02;21.20;;;12.65;;
37753;SDS011;23596;52.520;13.464;2022-08-19T13:41:54;19.55;;;12.43;;
37753;SDS011;23596;52.520;13.464;2022-08-19T13:44:20;19.70;;;13.60;;
37753;SDS011;23596;52.520;13.464;2022-08-19T13:46:47;17.00;;;12.93;;
37753;SDS011;23596;52.520;13.464;2022-08-19T13:49:15;20.77;;;14.02;;
37753;SDS011;23596;52.520;13.464;2022-08-19T13:51:42;18.80;;;13.60;;
37753;SDS011;23596;52.520;13.464;2022-08-19T13:54:08;17.95;;;13.38;;
37753;SDS011;23596;52.520;13.464;2022-08-19T13:56:39;21.63;;;13.35;;
37753;SDS011;23596;52.520;13.464;2022-08-19T13:59:06;17.33;;;13.18;;
37753;SDS011;23596;52.520;13.464;2022-08-19T14:01:31;24.00;;;13.80;;
37753;SDS011;23596;52.520;13.464;2022-08-19T14:03:57;15.87;;;12.63;;
37753;SDS011;23596;52.520;13.464;2022-08-19T14:06:22;18.80;;;13.07;;
37753;SDS011;23596;52.520;13.464;2022-08-19T14:08:48;17.07;;;12.57;;
37753;SDS011;23596;52.520;13.464;2022-08-19T14:11:14;20.27;;;13.60;;
37753;SDS011;23596;52.520;13.464;2022-08-19T14:13:40;18.90;;;12.98;;
37753;SDS011;23596;52.520;13.464;2022-08-19T14:16:10;19.13;;;13.10;;
37753;SDS011;23596;52.520;13.464;2022-08-19T14:18:38;18.83;;;13.15;;
37753;SDS011;23596;52.520;13.464;2022-08-19T14:21:04;17.80;;;12.68;;
37753;SDS011;23596;52.520;13.464;2022-08-19T14:23:31;20.65;;;14.52;;
37753;SDS011;23596;52.520;13.464;2022-08-19T14:26:09;20.73;;;12.65;;
37753;SDS011;23596;52.520;13.464;2022-08-19T14:28:37;15.13;;;13.07;;
37753;SDS011;23596;52.520;13.464;2022-08-19T14:31:05;15.52;;;11.40;;
37753;SDS011;23596;52.520;13.464;2022-08-19T14:33:31;25.03;;;13.47;;
37753;SDS011;23596;52.520;13.464;2022-08-19T14:35:57;18.13;;;12.93;;
37753;SDS011;23596;52.520;13.464;2022-08-19T14:38:22;21.97;;;12.40;;
37753;SDS011;23596;52.520;13.464;2022-08-19T14:40:48;23.37;;;15.87;;
37753;SDS011;23596;52.520;13.464;2022-08-19T14:43:14;17.17;;;13.33;;